EDDK

Cologne Bonn Airport

Cologne, Germany
METAR EDDK 131120Z 10009KT 060V140 9999 FEW027 03/M04 Q1020 NOSIG
Observed Flight Rules
Dec-13 @ 11:20 UTC (27 minutes ago) Visual Flight Rules
Wind Visibility Clouds
100° at 9 knots 10,000+ meters
  • Few at 2,700' AGL
Temperatures Readings
Current 3°C / 37°F
Dewpoint -4°C / 25°F
Humidity 60%
Altimeter 30.12" Hg
Pressure 1020 hPa
Elevation 99
METAR EDDK 131120Z 10009KT 060V140 9999 FEW027 03/M04 Q1020 NOSIG
Observed Flight Rules
Dec-13 @ 11:20 UTC
(27 minutes ago)
VFR
Wind Visibility
100° at 9 knots 10,000+ meters
Clouds
  • Few at 2,700' AGL
Temperature Dewpoint
3°C / 37°F -4°C / 25°F
Humidity Altimeter Pressure
60% 30.12" Hg 1020 hPa